Fort Bridger, Wyoming
Current Conditions -  °F | °C
As of 11:55 AM on Saturday 25 Oct 2014 (Local Time) from KFBR Reporting Station
Clear Clear  
Wind Chill: 58°   Ceiling: Unl
Heat Index: 58°   Visibility: NA
Dew Point: 26°   Wind: 6mph
Humidity: 29%   Direction: 140°SE
Pressure: 30.24"   Gusts: NA
Location:  41.32°N, 110.39°W
Report Text: KFBR 251755Z AUTO 14005KT CLR 15/M03 A3024 RMK AO2 T01451034 10145 20017 PWINO
Loading
Personal Weather Stations






























Interactive Weather Map
Tropical Storm Tracking
New forecast layout! Learn more

10-Day Weather Forecast

Advertisements
Track Severe Weather on mobile